Terminal Aerodrome Forecast
Issued by NWS Charleston, SC

Home | Current Version | Previous Version | Text Only | Print | Product List | Glossary On
Versions: 1 2 3 4 5 6 7 8 9 10 11 12 13 14 15 16 17 18 19
858
FTUS42 KCHS 092320
TAFCHS
TAF
KCHS 092320Z 1000/1024 28014G24KT P6SM BKN070
     FM100600 27012G18KT P6SM SKC
     FM101400 28016G25KT P6SM SKC=

USA.gov is the U.S. government's official web portal to all federal, state and local government web resources and services.